createdAt,value
2023-05-10T05:00:58.099Z,100711.53
2023-05-10T05:03:44.483Z,100716.69
2023-05-10T05:06:31.020Z,100709.41
2023-05-10T05:09:17.305Z,100710.44
2023-05-10T05:12:03.837Z,100711.56
2023-05-10T05:14:50.155Z,100711.19
2023-05-10T05:47:21.936Z,100729.59
2023-05-10T05:50:09.222Z,100731.25
2023-05-10T05:52:56.201Z,100735.09
2023-05-10T05:55:42.551Z,100730.06
2023-05-10T05:58:28.940Z,100731.41
2023-05-10T06:01:15.242Z,100734.03
2023-05-10T06:04:03.124Z,100730.31
2023-05-10T06:06:49.600Z,100734.19
2023-05-10T06:09:35.779Z,100736.88
2023-05-10T06:12:22.138Z,100736.38
2023-05-10T06:15:09.818Z,100739.16
2023-05-10T06:17:56.618Z,100745.81
2023-05-10T06:20:44.883Z,100747.94
2023-05-10T06:23:30.986Z,100748.06
2023-05-10T06:26:17.409Z,100753.19
2023-05-10T06:29:03.579Z,100747.69
2023-05-10T06:31:49.671Z,100742.56
2023-05-10T06:34:35.720Z,100748.41
2023-05-10T06:37:23.346Z,100762.59
2023-05-10T06:40:10.916Z,100759.44
2023-05-10T06:42:57.731Z,100754.28
2023-05-10T06:45:44.320Z,100758.72
2023-05-10T06:48:30.767Z,100762.94
2023-05-10T06:51:17.037Z,100755.59
2023-05-10T06:54:04.676Z,100762.56
2023-05-10T06:56:51.325Z,100764.50
2023-05-10T06:59:38.345Z,100771.31
2023-05-10T07:02:25.075Z,100769.81
2023-05-10T07:05:11.615Z,100765.03
2023-05-10T07:07:58.804Z,100767.84
2023-05-10T07:10:46.200Z,100778.16
2023-05-10T07:13:33.132Z,100775.25
2023-05-10T07:16:19.738Z,100790.00
2023-05-10T07:19:06.566Z,100789.28
2023-05-10T07:21:52.689Z,100786.88
2023-05-10T07:24:39.094Z,100793.56
2023-05-10T07:27:27.088Z,100793.84
2023-05-10T07:30:14.886Z,100805.09
2023-05-10T07:33:01.386Z,100806.88
2023-05-10T07:35:48.174Z,100807.84
2023-05-10T07:38:34.933Z,100809.38
2023-05-10T07:41:21.910Z,100803.72
2023-05-10T07:44:09.524Z,100813.19
2023-05-10T07:46:57.238Z,100812.97
2023-05-10T07:49:44.426Z,100803.03
2023-05-10T07:52:30.921Z,100806.56
2023-05-10T07:55:17.467Z,100808.75
2023-05-10T07:58:04.616Z,100814.00
2023-05-10T08:00:52.448Z,100810.06
2023-05-10T08:03:38.958Z,100820.09
2023-05-10T08:06:27.810Z,100825.94
2023-05-10T08:09:14.248Z,100825.47
2023-05-10T08:12:00.926Z,100832.91
2023-05-10T08:14:47.375Z,100834.75
2023-05-10T08:17:35.229Z,100830.81
2023-05-10T08:20:21.756Z,100831.91
2023-05-10T08:23:09.137Z,100842.75
2023-05-10T08:25:55.538Z,100841.75
2023-05-10T08:28:41.990Z,100842.84
2023-05-10T08:31:28.294Z,100857.66
2023-05-10T08:34:16.329Z,100859.72
2023-05-10T08:37:02.881Z,100856.59
2023-05-10T08:39:49.112Z,100861.59
2023-05-10T08:42:38.836Z,100870.53
2023-05-10T08:45:26.432Z,100873.63
2023-05-10T08:48:13.404Z,100880.53
2023-05-10T08:51:02.968Z,100884.81
2023-05-10T08:53:49.717Z,100883.97
2023-05-10T08:56:35.866Z,100879.13
2023-05-10T08:59:22.070Z,100875.78
2023-05-10T09:02:11.449Z,100882.56
2023-05-10T09:04:57.747Z,100878.66
2023-05-10T09:07:45.738Z,100896.31
2023-05-10T09:10:32.934Z,100892.47
2023-05-10T09:13:20.586Z,100889.50
2023-05-10T09:16:20.276Z,100891.91
2023-05-10T09:19:07.983Z,100897.09
2023-05-10T09:21:54.313Z,100905.25
2023-05-10T09:24:46.046Z,100902.66
2023-05-10T09:27:32.466Z,100921.16
2023-05-10T09:30:24.833Z,100940.75
2023-05-10T09:33:11.093Z,100943.88
2023-05-10T09:35:57.432Z,100951.22
2023-05-10T09:38:50.335Z,100954.50
2023-05-10T09:41:37.853Z,100963.69
2023-05-10T09:44:24.219Z,100966.31
2023-05-10T09:47:10.723Z,100972.84
2023-05-10T09:49:59.267Z,100983.13
2023-05-10T09:52:50.186Z,100980.00
2023-05-10T09:55:45.661Z,100984.75
2023-05-10T09:58:33.026Z,100988.03
2023-05-10T10:01:19.114Z,100991.69
2023-05-10T10:04:07.414Z,100997.00
2023-05-10T10:07:04.798Z,101001.09
2023-05-10T10:09:51.702Z,100995.81
2023-05-10T10:12:38.141Z,100999.84
2023-05-10T13:12:43.670Z,101092.25
2023-05-10T13:15:32.310Z,101102.72
2023-05-10T13:18:18.747Z,101097.88
2023-05-10T13:21:06.343Z,101097.81
2023-05-10T13:23:52.780Z,101094.66
2023-05-10T13:26:39.122Z,101103.16
2023-05-10T13:29:27.086Z,101108.31
2023-05-10T13:32:13.250Z,101110.50
2023-05-10T13:34:59.378Z,101122.03
2023-05-10T13:37:46.326Z,101114.84
2023-05-10T13:40:32.623Z,101118.94
2023-05-10T13:43:21.924Z,101117.97
2023-05-10T13:46:09.860Z,101121.88
2023-05-10T13:48:55.857Z,101126.66
2023-05-10T13:51:42.178Z,101120.06
2023-05-10T13:54:30.378Z,101117.38
2023-05-10T13:57:17.737Z,101116.13
2023-05-10T14:00:04.196Z,101116.38
2023-05-10T14:02:55.794Z,101121.16
2023-05-10T14:05:42.298Z,101104.09
2023-05-10T14:08:28.999Z,101116.44
2023-05-10T14:11:16.641Z,101119.97
2023-05-10T14:14:03.447Z,101121.19
2023-05-10T14:16:49.951Z,101126.50
2023-05-10T14:19:37.548Z,101117.13
2023-05-10T14:22:24.525Z,101119.63
2023-05-10T14:25:11.346Z,101115.09
2023-05-10T14:27:57.656Z,101106.84
2023-05-10T14:30:43.674Z,101108.88
2023-05-10T14:33:30.261Z,101118.69
2023-05-10T14:36:17.974Z,101122.28
2023-05-10T14:39:04.987Z,101127.09
2023-05-10T14:41:52.328Z,101109.97
2023-05-10T14:44:38.265Z,101114.25
2023-05-10T14:47:24.182Z,101109.22
2023-05-10T14:50:10.821Z,101111.16
2023-05-10T14:53:00.395Z,101118.66
2023-05-10T14:55:46.735Z,101116.78
2023-05-10T14:58:34.233Z,101111.50
2023-05-10T16:00:25.939Z,101175.28
2023-05-10T16:03:13.717Z,101175.63
2023-05-10T16:06:00.262Z,101188.03
2023-05-10T16:08:47.347Z,101180.25
2023-05-10T16:11:33.561Z,101181.84
2023-05-10T16:14:21.316Z,101183.91
2023-05-10T17:42:34.259Z,101227.38
2023-05-10T17:45:24.280Z,101225.63
2023-05-10T17:48:11.431Z,101227.44
2023-05-10T17:50:58.178Z,101232.47
2023-05-10T17:53:44.623Z,101236.38
2023-05-10T17:56:31.060Z,101237.59
2023-05-10T17:59:18.781Z,101231.47
2023-05-10T18:02:05.071Z,101236.44
2023-05-10T18:04:51.270Z,101241.38
2023-05-10T18:07:37.762Z,101242.06
2023-05-10T18:10:25.371Z,101242.84
2023-05-10T18:13:11.854Z,101241.63
2023-05-10T18:15:59.677Z,101239.09
2023-05-10T18:18:45.793Z,101242.22
2023-05-10T18:21:32.571Z,101249.72
2023-05-10T18:24:26.499Z,101251.44
2023-05-10T18:27:23.694Z,101238.38
2023-05-10T18:30:12.304Z,101244.31
2023-05-10T18:32:59.772Z,101241.72
2023-05-10T18:35:46.360Z,101243.97
2023-05-10T18:38:32.843Z,101245.31
2023-05-10T18:41:19.495Z,101250.97
2023-05-10T18:44:06.108Z,101248.03
2023-05-10T18:46:54.192Z,101255.47
2023-05-10T18:49:43.680Z,101256.31
2023-05-10T18:52:30.083Z,101253.63
2023-05-10T18:55:16.457Z,101257.88
2023-05-10T18:58:02.796Z,101266.25
2023-05-10T19:37:45.709Z,101272.00
2023-05-10T19:51:54.356Z,101284.03
2023-05-10T22:00:17.135Z,101247.88
2023-05-10T22:03:05.090Z,101248.09
2023-05-10T22:05:51.327Z,101262.16
2023-05-10T22:08:37.564Z,101258.56
2023-05-10T22:11:24.083Z,101252.84
2023-05-10T22:14:10.233Z,101254.00
